sensor_id;sensor_type;location;lat;lon;timestamp;pressure;altitude;pressure_sealevel;temperature;humidity
28004;BME280;15330;51.234;6.754;2022-08-07T00:00:26;102142.13;;;17.49;54.52
28004;BME280;15330;51.234;6.754;2022-08-07T00:02:52;102137.00;;;17.63;54.13
28004;BME280;15330;51.234;6.754;2022-08-07T00:05:20;102139.22;;;17.90;53.60
28004;BME280;15330;51.234;6.754;2022-08-07T00:07:46;102138.16;;;17.68;54.47
28004;BME280;15330;51.234;6.754;2022-08-07T00:10:11;102138.50;;;17.57;55.05
28004;BME280;15330;51.234;6.754;2022-08-07T00:12:36;102136.66;;;17.57;54.73
28004;BME280;15330;51.234;6.754;2022-08-07T00:15:02;102140.72;;;17.61;55.03
28004;BME280;15330;51.234;6.754;2022-08-07T00:17:27;102133.09;;;17.57;55.46
28004;BME280;15330;51.234;6.754;2022-08-07T00:19:53;102137.22;;;17.45;55.73
28004;BME280;15330;51.234;6.754;2022-08-07T00:22:19;102124.69;;;17.52;55.49
28004;BME280;15330;51.234;6.754;2022-08-07T00:24:44;102124.19;;;17.48;56.04
28004;BME280;15330;51.234;6.754;2022-08-07T00:27:09;102128.91;;;17.54;55.56
28004;BME280;15330;51.234;6.754;2022-08-07T00:29:35;102123.94;;;17.27;56.87
28004;BME280;15330;51.234;6.754;2022-08-07T00:32:00;102114.81;;;17.28;56.60
28004;BME280;15330;51.234;6.754;2022-08-07T00:34:27;102120.56;;;17.33;56.75
28004;BME280;15330;51.234;6.754;2022-08-07T00:36:54;102125.66;;;17.20;57.18
28004;BME280;15330;51.234;6.754;2022-08-07T00:39:20;102114.81;;;17.28;57.00
28004;BME280;15330;51.234;6.754;2022-08-07T00:41:55;102117.22;;;17.23;57.04
28004;BME280;15330;51.234;6.754;2022-08-07T00:44:22;102098.28;;;17.23;56.65
28004;BME280;15330;51.234;6.754;2022-08-07T00:46:48;102118.25;;;17.14;56.89
28004;BME280;15330;51.234;6.754;2022-08-07T00:49:13;102113.47;;;17.24;56.59
28004;BME280;15330;51.234;6.754;2022-08-07T00:51:39;102110.09;;;17.30;56.60
28004;BME280;15330;51.234;6.754;2022-08-07T00:54:05;102115.53;;;17.14;57.09
28004;BME280;15330;51.234;6.754;2022-08-07T00:56:32;102113.16;;;17.19;56.72
28004;BME280;15330;51.234;6.754;2022-08-07T00:58:57;102110.47;;;17.19;56.68
28004;BME280;15330;51.234;6.754;2022-08-07T01:01:23;102114.22;;;17.10;56.68
28004;BME280;15330;51.234;6.754;2022-08-07T01:03:49;102111.72;;;17.00;57.12
28004;BME280;15330;51.234;6.754;2022-08-07T01:06:18;102106.91;;;16.39;58.71
28004;BME280;15330;51.234;6.754;2022-08-07T01:08:45;102105.03;;;16.64;58.22
28004;BME280;15330;51.234;6.754;2022-08-07T01:11:13;102101.97;;;16.59;58.68
28004;BME280;15330;51.234;6.754;2022-08-07T01:13:40;102096.53;;;16.83;57.54
28004;BME280;15330;51.234;6.754;2022-08-07T01:16:06;102094.19;;;16.72;58.18
28004;BME280;15330;51.234;6.754;2022-08-07T01:18:32;102094.53;;;16.77;58.13
28004;BME280;15330;51.234;6.754;2022-08-07T01:21:07;102097.03;;;16.86;57.34
28004;BME280;15330;51.234;6.754;2022-08-07T01:23:34;102089.97;;;16.77;57.48
28004;BME280;15330;51.234;6.754;2022-08-07T01:26:01;102083.56;;;16.78;58.00
28004;BME280;15330;51.234;6.754;2022-08-07T01:28:27;102091.13;;;16.91;57.13
28004;BME280;15330;51.234;6.754;2022-08-07T01:30:54;102089.66;;;16.80;57.94
28004;BME280;15330;51.234;6.754;2022-08-07T01:33:20;102088.63;;;16.73;58.01
28004;BME280;15330;51.234;6.754;2022-08-07T01:35:46;102084.25;;;16.64;58.13
28004;BME280;15330;51.234;6.754;2022-08-07T01:38:12;102084.22;;;16.72;58.05
28004;BME280;15330;51.234;6.754;2022-08-07T01:40:39;102092.03;;;16.59;57.97
28004;BME280;15330;51.234;6.754;2022-08-07T01:43:05;102090.47;;;16.73;58.45
28004;BME280;15330;51.234;6.754;2022-08-07T01:45:31;102082.56;;;16.71;58.60
28004;BME280;15330;51.234;6.754;2022-08-07T01:47:58;102084.75;;;16.76;58.50
28004;BME280;15330;51.234;6.754;2022-08-07T01:50:25;102078.31;;;16.77;58.22
28004;BME280;15330;51.234;6.754;2022-08-07T01:52:53;102075.47;;;16.62;58.25
28004;BME280;15330;51.234;6.754;2022-08-07T01:55:24;102078.19;;;16.38;59.36
28004;BME280;15330;51.234;6.754;2022-08-07T01:57:51;102085.28;;;16.63;58.06
28004;BME280;15330;51.234;6.754;2022-08-07T02:00:20;102076.31;;;16.63;58.48
28004;BME280;15330;51.234;6.754;2022-08-07T02:02:55;102084.09;;;16.66;58.59
28004;BME280;15330;51.234;6.754;2022-08-07T02:05:29;102073.09;;;16.75;58.02
28004;BME280;15330;51.234;6.754;2022-08-07T02:07:57;102076.81;;;16.58;58.50
28004;BME280;15330;51.234;6.754;2022-08-07T02:10:25;102078.88;;;16.48;59.05
28004;BME280;15330;51.234;6.754;2022-08-07T02:12:53;102077.88;;;16.17;59.32
28004;BME280;15330;51.234;6.754;2022-08-07T02:15:22;102077.38;;;16.29;59.52
28004;BME280;15330;51.234;6.754;2022-08-07T02:17:50;102088.50;;;16.26;59.41
28004;BME280;15330;51.234;6.754;2022-08-07T02:20:18;102074.66;;;16.29;59.58
28004;BME280;15330;51.234;6.754;2022-08-07T02:22:45;102080.56;;;16.17;60.13
28004;BME280;15330;51.234;6.754;2022-08-07T02:25:15;102067.22;;;16.31;59.68
28004;BME280;15330;51.234;6.754;2022-08-07T02:27:43;102074.16;;;16.18;60.25
28004;BME280;15330;51.234;6.754;2022-08-07T02:30:10;102071.28;;;16.03;60.59
28004;BME280;15330;51.234;6.754;2022-08-07T02:32:36;102074.81;;;16.20;60.76
28004;BME280;15330;51.234;6.754;2022-08-07T02:35:04;102071.78;;;16.31;59.65
28004;BME280;15330;51.234;6.754;2022-08-07T02:37:31;102079.91;;;16.39;59.50
28004;BME280;15330;51.234;6.754;2022-08-07T02:39:57;102069.91;;;16.31;60.27
28004;BME280;15330;51.234;6.754;2022-08-07T02:42:23;102066.91;;;16.18;60.62
28004;BME280;15330;51.234;6.754;2022-08-07T02:44:51;102063.53;;;16.16;60.52
28004;BME280;15330;51.234;6.754;2022-08-07T02:47:18;102066.03;;;16.34;59.83
28004;BME280;15330;51.234;6.754;2022-08-07T02:49:44;102061.69;;;16.08;60.61
28004;BME280;15330;51.234;6.754;2022-08-07T02:52:14;102062.16;;;16.36;60.04
28004;BME280;15330;51.234;6.754;2022-08-07T02:54:42;102064.88;;;16.36;60.02
28004;BME280;15330;51.234;6.754;2022-08-07T02:57:11;102061.63;;;16.41;59.93
28004;BME280;15330;51.234;6.754;2022-08-07T02:59:40;102063.00;;;16.37;60.19
28004;BME280;15330;51.234;6.754;2022-08-07T03:02:11;102062.00;;;16.30;60.12
28004;BME280;15330;51.234;6.754;2022-08-07T03:04:38;102068.91;;;16.24;60.42
28004;BME280;15330;51.234;6.754;2022-08-07T03:07:05;102071.97;;;16.29;60.39
28004;BME280;15330;51.234;6.754;2022-08-07T03:09:31;102078.19;;;16.13;61.02
28004;BME280;15330;51.234;6.754;2022-08-07T03:11:57;102078.56;;;16.19;60.85
28004;BME280;15330;51.234;6.754;2022-08-07T03:14:23;102049.34;;;16.06;60.85
28004;BME280;15330;51.234;6.754;2022-08-07T03:16:49;102072.97;;;16.20;60.85
28004;BME280;15330;51.234;6.754;2022-08-07T03:19:15;102070.78;;;16.07;61.34
28004;BME280;15330;51.234;6.754;2022-08-07T03:21:40;102075.50;;;16.22;60.71
28004;BME280;15330;51.234;6.754;2022-08-07T03:24:06;102077.19;;;16.23;60.76
28004;BME280;15330;51.234;6.754;2022-08-07T03:26:32;102071.13;;;16.12;61.01
28004;BME280;15330;51.234;6.754;2022-08-07T03:29:00;102063.34;;;16.01;61.48
28004;BME280;15330;51.234;6.754;2022-08-07T03:31:26;102073.31;;;16.17;60.87
28004;BME280;15330;51.234;6.754;2022-08-07T03:33:56;102078.53;;;16.10;61.53
28004;BME280;15330;51.234;6.754;2022-08-07T03:36:24;102065.22;;;16.17;60.79
28004;BME280;15330;51.234;6.754;2022-08-07T03:38:52;102066.56;;;16.13;61.36
28004;BME280;15330;51.234;6.754;2022-08-07T03:41:19;102063.50;;;16.00;61.76
28004;BME280;15330;51.234;6.754;2022-08-07T03:43:45;102069.78;;;16.08;61.26
28004;BME280;15330;51.234;6.754;2022-08-07T03:46:11;102061.66;;;15.92;61.74
28004;BME280;15330;51.234;6.754;2022-08-07T03:48:38;102066.41;;;15.98;61.47
28004;BME280;15330;51.234;6.754;2022-08-07T03:51:05;102066.91;;;15.94;61.70
28004;BME280;15330;51.234;6.754;2022-08-07T03:53:32;102060.16;;;15.98;61.56
28004;BME280;15330;51.234;6.754;2022-08-07T03:55:58;102046.66;;;15.98;61.26
28004;BME280;15330;51.234;6.754;2022-08-07T03:58:27;102060.81;;;16.00;61.23
28004;BME280;15330;51.234;6.754;2022-08-07T04:00:55;102055.78;;;16.05;61.25
28004;BME280;15330;51.234;6.754;2022-08-07T04:03:24;102061.69;;;16.17;61.25
28004;BME280;15330;51.234;6.754;2022-08-07T04:05:50;102058.47;;;16.05;61.74
28004;BME280;15330;51.234;6.754;2022-08-07T04:08:15;102062.53;;;16.09;61.58
28004;BME280;15330;51.234;6.754;2022-08-07T04:10:42;102060.00;;;16.07;61.81
28004;BME280;15330;51.234;6.754;2022-08-07T04:13:11;102052.91;;;16.14;62.02
28004;BME280;15330;51.234;6.754;2022-08-07T04:15:37;102047.59;;;16.53;61.45
28004;BME280;15330;51.234;6.754;2022-08-07T04:18:03;102047.63;;;16.62;60.97
28004;BME280;15330;51.234;6.754;2022-08-07T04:20:29;102047.94;;;16.59;60.99
28004;BME280;15330;51.234;6.754;2022-08-07T04:22:56;102051.84;;;16.48;61.08
28004;BME280;15330;51.234;6.754;2022-08-07T04:25:23;102053.88;;;16.46;61.33
28004;BME280;15330;51.234;6.754;2022-08-07T04:27:49;102058.91;;;16.57;60.91
28004;BME280;15330;51.234;6.754;2022-08-07T04:30:14;102051.66;;;16.58;61.02
28004;BME280;15330;51.234;6.754;2022-08-07T04:32:41;102052.47;;;16.74;60.24
28004;BME280;15330;51.234;6.754;2022-08-07T04:35:07;102063.84;;;16.45;60.99
28004;BME280;15330;51.234;6.754;2022-08-07T04:37:34;102058.16;;;16.96;59.93
28004;BME280;15330;51.234;6.754;2022-08-07T04:40:00;102067.69;;;16.75;60.59
28004;BME280;15330;51.234;6.754;2022-08-07T04:42:26;102073.44;;;16.80;60.43
28004;BME280;15330;51.234;6.754;2022-08-07T04:44:55;102072.25;;;16.75;60.15
28004;BME280;15330;51.234;6.754;2022-08-07T04:47:29;102082.75;;;16.70;60.39
28004;BME280;15330;51.234;6.754;2022-08-07T04:50:30;102080.31;;;16.83;60.10
28004;BME280;15330;51.234;6.754;2022-08-07T04:53:09;102078.47;;;16.83;60.28
28004;BME280;15330;51.234;6.754;2022-08-07T04:55:58;102072.84;;;16.93;60.21
28004;BME280;15330;51.234;6.754;2022-08-07T05:04:17;102073.66;;;17.10;59.82
28004;BME280;15330;51.234;6.754;2022-08-07T05:07:00;102072.25;;;16.75;60.04
28004;BME280;15330;51.234;6.754;2022-08-07T05:12:01;102071.25;;;16.68;60.51
28004;BME280;15330;51.234;6.754;2022-08-07T05:14:37;102074.13;;;16.66;61.31
28004;BME280;15330;51.234;6.754;2022-08-07T05:17:07;102078.31;;;16.77;60.57
28004;BME280;15330;51.234;6.754;2022-08-07T05:19:51;102076.50;;;16.37;62.00
28004;BME280;15330;51.234;6.754;2022-08-07T05:22:20;102076.53;;;16.29;62.12
28004;BME280;15330;51.234;6.754;2022-08-07T05:24:47;102087.28;;;16.53;61.55
28004;BME280;15330;51.234;6.754;2022-08-07T05:27:16;102088.59;;;16.90;60.33
28004;BME280;15330;51.234;6.754;2022-08-07T05:29:43;102091.94;;;17.00;59.90
28004;BME280;15330;51.234;6.754;2022-08-07T05:32:10;102078.78;;;16.97;59.93
28004;BME280;15330;51.234;6.754;2022-08-07T05:34:36;102083.34;;;16.96;60.02
28004;BME280;15330;51.234;6.754;2022-08-07T05:37:04;102077.16;;;16.71;60.52
28004;BME280;15330;51.234;6.754;2022-08-07T05:39:30;102084.34;;;16.95;60.28
28004;BME280;15330;51.234;6.754;2022-08-07T05:41:56;102083.88;;;16.92;59.50
28004;BME280;15330;51.234;6.754;2022-08-07T05:47:08;102090.84;;;17.56;58.40
28004;BME280;15330;51.234;6.754;2022-08-07T05:49:35;102103.91;;;17.83;58.19
28004;BME280;15330;51.234;6.754;2022-08-07T05:52:01;102099.13;;;18.31;56.91
28004;BME280;15330;51.234;6.754;2022-08-07T05:54:27;102103.53;;;18.32;55.71
28004;BME280;15330;51.234;6.754;2022-08-07T05:56:53;102112.13;;;18.36;56.04
28004;BME280;15330;51.234;6.754;2022-08-07T05:59:20;102097.47;;;18.67;55.10
28004;BME280;15330;51.234;6.754;2022-08-07T06:01:48;102101.31;;;18.73;54.34
28004;BME280;15330;51.234;6.754;2022-08-07T06:04:16;102106.34;;;18.76;53.79
28004;BME280;15330;51.234;6.754;2022-08-07T06:06:42;102099.09;;;18.54;53.90
28004;BME280;15330;51.234;6.754;2022-08-07T06:09:08;102101.50;;;19.16;52.52
28004;BME280;15330;51.234;6.754;2022-08-07T06:11:34;102101.38;;;19.24;53.74
28004;BME280;15330;51.234;6.754;2022-08-07T06:14:01;102110.13;;;19.19;52.70
28004;BME280;15330;51.234;6.754;2022-08-07T06:16:32;102109.59;;;19.45;52.03
28004;BME280;15330;51.234;6.754;2022-08-07T06:19:00;102114.75;;;19.91;51.18
28004;BME280;15330;51.234;6.754;2022-08-07T06:21:27;102114.44;;;20.22;49.93
28004;BME280;15330;51.234;6.754;2022-08-07T06:23:53;102118.47;;;19.68;49.82
28004;BME280;15330;51.234;6.754;2022-08-07T06:26:19;102116.69;;;19.97;49.08
28004;BME280;15330;51.234;6.754;2022-08-07T06:31:14;102105.44;;;21.39;47.00
28004;BME280;15330;51.234;6.754;2022-08-07T06:33:39;102107.59;;;21.50;47.55
28004;BME280;15330;51.234;6.754;2022-08-07T06:36:05;102104.13;;;21.76;46.06
28004;BME280;15330;51.234;6.754;2022-08-07T06:38:31;102100.25;;;22.31;45.79
28004;BME280;15330;51.234;6.754;2022-08-07T06:40:57;102103.81;;;22.32;43.73
28004;BME280;15330;51.234;6.754;2022-08-07T06:43:25;102099.56;;;22.95;44.05
28004;BME280;15330;51.234;6.754;2022-08-07T06:45:53;102096.19;;;23.13;42.68
28004;BME280;15330;51.234;6.754;2022-08-07T06:48:18;102090.88;;;23.25;43.66
28004;BME280;15330;51.234;6.754;2022-08-07T06:50:44;102095.34;;;21.87;43.36
28004;BME280;15330;51.234;6.754;2022-08-07T06:53:12;102092.13;;;23.29;42.45
28004;BME280;15330;51.234;6.754;2022-08-07T06:55:39;102098.03;;;24.08;41.12
28004;BME280;15330;51.234;6.754;2022-08-07T06:58:07;102094.31;;;23.96;41.73
28004;BME280;15330;51.234;6.754;2022-08-07T07:00:37;102092.38;;;24.35;40.11
28004;BME280;15330;51.234;6.754;2022-08-07T07:03:03;102085.34;;;25.25;40.00
28004;BME280;15330;51.234;6.754;2022-08-07T07:05:29;102085.66;;;25.17;38.23
28004;BME280;15330;51.234;6.754;2022-08-07T07:07:55;102084.72;;;25.23;37.91
28004;BME280;15330;51.234;6.754;2022-08-07T07:10:29;102090.00;;;25.06;38.22
28004;BME280;15330;51.234;6.754;2022-08-07T07:13:01;102084.13;;;25.21;37.49
28004;BME280;15330;51.234;6.754;2022-08-07T07:15:30;102089.75;;;25.63;37.48
28004;BME280;15330;51.234;6.754;2022-08-07T07:18:33;102095.00;;;26.17;37.21
28004;BME280;15330;51.234;6.754;2022-08-07T07:21:26;102085.31;;;25.91;34.87
28004;BME280;15330;51.234;6.754;2022-08-07T07:23:54;102078.38;;;25.11;37.46
28004;BME280;15330;51.234;6.754;2022-08-07T07:26:21;102090.47;;;24.35;36.11
28004;BME280;15330;51.234;6.754;2022-08-07T07:28:59;102090.66;;;26.28;36.36
28004;BME280;15330;51.234;6.754;2022-08-07T07:31:31;102079.97;;;26.08;35.23
28004;BME280;15330;51.234;6.754;2022-08-07T07:34:02;102080.75;;;25.85;32.91
28004;BME280;15330;51.234;6.754;2022-08-07T07:36:29;102078.84;;;26.74;33.19
28004;BME280;15330;51.234;6.754;2022-08-07T07:38:57;102072.63;;;27.42;32.50
28004;BME280;15330;51.234;6.754;2022-08-07T07:41:25;102088.56;;;24.04;35.04
28004;BME280;15330;51.234;6.754;2022-08-07T07:43:52;102088.22;;;24.26;36.06
28004;BME280;15330;51.234;6.754;2022-08-07T07:46:19;102079.78;;;27.15;34.32
28004;BME280;15330;51.234;6.754;2022-08-07T07:48:48;102078.09;;;27.54;33.98
28004;BME280;15330;51.234;6.754;2022-08-07T07:51:15;102077.19;;;27.76;33.37
28004;BME280;15330;51.234;6.754;2022-08-07T07:53:44;102069.19;;;27.75;32.35
28004;BME280;15330;51.234;6.754;2022-08-07T07:56:11;102067.72;;;28.01;31.80
28004;BME280;15330;51.234;6.754;2022-08-07T07:58:38;102078.41;;;24.43;34.92
28004;BME280;15330;51.234;6.754;2022-08-07T08:01:05;102080.81;;;24.33;35.92
28004;BME280;15330;51.234;6.754;2022-08-07T08:03:32;102069.75;;;26.15;34.91
28004;BME280;15330;51.234;6.754;2022-08-07T08:06:00;102067.22;;;25.61;33.78
28004;BME280;15330;51.234;6.754;2022-08-07T08:08:28;102066.25;;;26.08;33.42
28004;BME280;15330;51.234;6.754;2022-08-07T08:10:55;102067.59;;;25.64;33.88
28004;BME280;15330;51.234;6.754;2022-08-07T08:13:23;102061.38;;;27.15;33.83
28004;BME280;15330;51.234;6.754;2022-08-07T08:15:50;102068.38;;;26.36;32.75
28004;BME280;15330;51.234;6.754;2022-08-07T08:18:17;102067.13;;;26.20;34.32
28004;BME280;15330;51.234;6.754;2022-08-07T08:20:45;102060.06;;;27.58;33.15
28004;BME280;15330;51.234;6.754;2022-08-07T08:23:12;102060.34;;;26.69;32.70
28004;BME280;15330;51.234;6.754;2022-08-07T08:26:00;102057.59;;;26.58;31.88
28004;BME280;15330;51.234;6.754;2022-08-07T08:28:46;102049.28;;;26.64;33.27
28004;BME280;15330;51.234;6.754;2022-08-07T08:31:19;102054.16;;;28.28;31.44
28004;BME280;15330;51.234;6.754;2022-08-07T08:33:45;102038.00;;;27.01;33.69
28004;BME280;15330;51.234;6.754;2022-08-07T08:36:12;102053.19;;;28.34;31.29
28004;BME280;15330;51.234;6.754;2022-08-07T08:38:42;102047.91;;;26.20;32.88
28004;BME280;15330;51.234;6.754;2022-08-07T08:43:58;102045.13;;;28.16;30.55
28004;BME280;15330;51.234;6.754;2022-08-07T08:46:55;102045.19;;;26.79;32.25
28004;BME280;15330;51.234;6.754;2022-08-07T08:49:35;102037.66;;;27.37;30.07
28004;BME280;15330;51.234;6.754;2022-08-07T08:52:17;102043.66;;;28.41;29.73
28004;BME280;15330;51.234;6.754;2022-08-07T08:57:43;102042.81;;;27.62;27.98
28004;BME280;15330;51.234;6.754;2022-08-07T09:00:11;102034.16;;;27.42;28.67
28004;BME280;15330;51.234;6.754;2022-08-07T09:13:47;102025.09;;;26.90;27.44
28004;BME280;15330;51.234;6.754;2022-08-07T09:16:40;102020.59;;;26.95;27.88
28004;BME280;15330;51.234;6.754;2022-08-07T09:25:12;102016.78;;;27.82;26.55
28004;BME280;15330;51.234;6.754;2022-08-07T09:27:49;102017.53;;;27.77;26.47
28004;BME280;15330;51.234;6.754;2022-08-07T09:30:16;102012.59;;;26.82;27.04
28004;BME280;15330;51.234;6.754;2022-08-07T09:35:46;102018.19;;;27.67;28.50
28004;BME280;15330;51.234;6.754;2022-08-07T09:46:40;102009.00;;;28.45;27.03
28004;BME280;15330;51.234;6.754;2022-08-07T09:54:56;102001.38;;;27.81;26.02
28004;BME280;15330;51.234;6.754;2022-08-07T10:00:28;102000.06;;;26.98;26.69
28004;BME280;15330;51.234;6.754;2022-08-07T10:03:06;101997.28;;;28.33;24.56
28004;BME280;15330;51.234;6.754;2022-08-07T10:09:12;101992.13;;;28.20;25.12
28004;BME280;15330;51.234;6.754;2022-08-07T10:12:05;101981.75;;;26.52;26.65
28004;BME280;15330;51.234;6.754;2022-08-07T10:15:00;101980.75;;;28.17;26.26
28004;BME280;15330;51.234;6.754;2022-08-07T10:29:10;101963.91;;;29.12;24.42
28004;BME280;15330;51.234;6.754;2022-08-07T10:31:54;101968.78;;;28.23;24.24
28004;BME280;15330;51.234;6.754;2022-08-07T10:34:37;101966.38;;;28.48;24.65
28004;BME280;15330;51.234;6.754;2022-08-07T10:43:09;101952.31;;;28.66;24.28
28004;BME280;15330;51.234;6.754;2022-08-07T10:45:46;101946.06;;;28.93;23.45
28004;BME280;15330;51.234;6.754;2022-08-07T10:59:25;101946.88;;;27.77;23.68
28004;BME280;15330;51.234;6.754;2022-08-07T11:02:14;101946.53;;;27.29;23.79
28004;BME280;15330;51.234;6.754;2022-08-07T11:10:02;101937.81;;;28.16;24.17
28004;BME280;15330;51.234;6.754;2022-08-07T11:12:32;101922.41;;;28.75;23.46
28004;BME280;15330;51.234;6.754;2022-08-07T11:15:03;101919.81;;;29.12;24.36
28004;BME280;15330;51.234;6.754;2022-08-07T11:17:42;101925.78;;;26.53;24.95
28004;BME280;15330;51.234;6.754;2022-08-07T11:20:21;101919.56;;;27.71;23.59
28004;BME280;15330;51.234;6.754;2022-08-07T11:25:33;101901.66;;;28.67;23.45
28004;BME280;15330;51.234;6.754;2022-08-07T11:28:11;101898.84;;;28.62;23.53
28004;BME280;15330;51.234;6.754;2022-08-07T11:33:22;101900.00;;;29.15;22.52
28004;BME280;15330;51.234;6.754;2022-08-07T11:38:32;101886.13;;;29.64;21.95
28004;BME280;15330;51.234;6.754;2022-08-07T11:41:13;101882.22;;;28.30;22.46
28004;BME280;15330;51.234;6.754;2022-08-07T11:43:56;101883.22;;;29.16;23.08
28004;BME280;15330;51.234;6.754;2022-08-07T11:49:46;101892.63;;;28.50;23.03
28004;BME280;15330;51.234;6.754;2022-08-07T11:58:01;101888.00;;;28.12;23.30
28004;BME280;15330;51.234;6.754;2022-08-07T12:01:31;101886.78;;;28.90;22.86
28004;BME280;15330;51.234;6.754;2022-08-07T12:06:30;101891.25;;;27.42;23.21
28004;BME280;15330;51.234;6.754;2022-08-07T12:09:12;101887.19;;;26.99;24.64
28004;BME280;15330;51.234;6.754;2022-08-07T12:12:25;101890.78;;;27.79;23.49
28004;BME280;15330;51.234;6.754;2022-08-07T12:14:28;101868.56;;;28.62;23.28
28004;BME280;15330;51.234;6.754;2022-08-07T12:17:09;101871.72;;;28.76;23.02
28004;BME280;15330;51.234;6.754;2022-08-07T12:24:38;101876.31;;;28.05;22.38
28004;BME280;15330;51.234;6.754;2022-08-07T12:27:25;101881.56;;;27.23;23.05
28004;BME280;15330;51.234;6.754;2022-08-07T12:29:59;101865.44;;;28.15;22.60
28004;BME280;15330;51.234;6.754;2022-08-07T12:32:35;101869.44;;;27.52;23.24
28004;BME280;15330;51.234;6.754;2022-08-07T12:35:05;101856.47;;;28.41;22.36
28004;BME280;15330;51.234;6.754;2022-08-07T12:37:32;101857.84;;;27.84;22.33
28004;BME280;15330;51.234;6.754;2022-08-07T12:40:00;101848.91;;;27.71;23.39
28004;BME280;15330;51.234;6.754;2022-08-07T12:42:27;101843.44;;;28.32;23.19
28004;BME280;15330;51.234;6.754;2022-08-07T12:44:53;101849.06;;;28.69;22.91
28004;BME280;15330;51.234;6.754;2022-08-07T12:50:27;101861.59;;;27.44;23.62
28004;BME280;15330;51.234;6.754;2022-08-07T12:53:17;101847.25;;;26.80;24.04
28004;BME280;15330;51.234;6.754;2022-08-07T12:56:00;101858.19;;;27.20;23.85
28004;BME280;15330;51.234;6.754;2022-08-07T12:58:34;101861.47;;;28.06;23.54
28004;BME280;15330;51.234;6.754;2022-08-07T13:01:06;101858.47;;;27.69;23.04
28004;BME280;15330;51.234;6.754;2022-08-07T13:06:37;101847.13;;;27.49;23.32
28004;BME280;15330;51.234;6.754;2022-08-07T13:17:52;101829.50;;;27.61;23.23
28004;BME280;15330;51.234;6.754;2022-08-07T13:20:39;101832.69;;;27.92;23.81
28004;BME280;15330;51.234;6.754;2022-08-07T13:23:09;101826.25;;;28.25;23.22
28004;BME280;15330;51.234;6.754;2022-08-07T13:25:43;101823.31;;;28.53;22.81
28004;BME280;15330;51.234;6.754;2022-08-07T13:28:20;101823.81;;;27.18;23.74
28004;BME280;15330;51.234;6.754;2022-08-07T13:30:53;101826.13;;;26.81;23.94
28004;BME280;15330;51.234;6.754;2022-08-07T13:33:54;101819.81;;;27.25;23.80
28004;BME280;15330;51.234;6.754;2022-08-07T13:36:29;101822.25;;;27.72;23.19
28004;BME280;15330;51.234;6.754;2022-08-07T13:39:02;101815.59;;;27.90;22.86
28004;BME280;15330;51.234;6.754;2022-08-07T13:41:46;101810.41;;;27.04;23.45
28004;BME280;15330;51.234;6.754;2022-08-07T13:44:17;101811.00;;;27.07;23.77
28004;BME280;15330;51.234;6.754;2022-08-07T13:46:45;101810.50;;;26.53;23.68
28004;BME280;15330;51.234;6.754;2022-08-07T13:49:12;101804.59;;;26.44;23.72
28004;BME280;15330;51.234;6.754;2022-08-07T13:51:41;101803.50;;;26.74;23.49
28004;BME280;15330;51.234;6.754;2022-08-07T13:54:12;101806.94;;;27.59;22.38
28004;BME280;15330;51.234;6.754;2022-08-07T13:56:39;101805.00;;;26.81;22.84
28004;BME280;15330;51.234;6.754;2022-08-07T13:59:12;101809.06;;;27.07;22.99
28004;BME280;15330;51.234;6.754;2022-08-07T14:01:47;101805.66;;;27.50;22.86
28004;BME280;15330;51.234;6.754;2022-08-07T14:04:15;101796.16;;;27.41;22.71
28004;BME280;15330;51.234;6.754;2022-08-07T14:06:43;101787.94;;;27.08;23.43
28004;BME280;15330;51.234;6.754;2022-08-07T14:09:24;101786.59;;;27.60;24.06
28004;BME280;15330;51.234;6.754;2022-08-07T14:11:56;101785.84;;;27.48;24.11
28004;BME280;15330;51.234;6.754;2022-08-07T14:14:29;101784.16;;;27.64;24.42
28004;BME280;15330;51.234;6.754;2022-08-07T14:16:59;101780.47;;;27.97;24.11
28004;BME280;15330;51.234;6.754;2022-08-07T14:19:37;101777.03;;;27.85;23.67
28004;BME280;15330;51.234;6.754;2022-08-07T14:22:09;101777.53;;;27.60;24.70
28004;BME280;15330;51.234;6.754;2022-08-07T14:24:41;101768.34;;;27.37;23.92
28004;BME280;15330;51.234;6.754;2022-08-07T14:27:11;101769.63;;;27.30;24.48
28004;BME280;15330;51.234;6.754;2022-08-07T14:29:46;101778.72;;;27.52;24.10
28004;BME280;15330;51.234;6.754;2022-08-07T14:32:13;101761.09;;;27.65;24.39
28004;BME280;15330;51.234;6.754;2022-08-07T14:34:42;101757.38;;;27.04;24.38
28004;BME280;15330;51.234;6.754;2022-08-07T14:37:10;101763.34;;;27.34;24.07
28004;BME280;15330;51.234;6.754;2022-08-07T14:39:41;101767.31;;;26.77;25.22
28004;BME280;15330;51.234;6.754;2022-08-07T14:42:09;101762.53;;;27.00;24.40
28004;BME280;15330;51.234;6.754;2022-08-07T14:44:48;101755.88;;;26.96;24.55
28004;BME280;15330;51.234;6.754;2022-08-07T14:47:16;101757.66;;;26.57;24.64
28004;BME280;15330;51.234;6.754;2022-08-07T14:49:43;101762.00;;;26.42;24.96
28004;BME280;15330;51.234;6.754;2022-08-07T14:52:10;101753.06;;;26.63;24.58
28004;BME280;15330;51.234;6.754;2022-08-07T14:54:37;101752.38;;;25.87;25.27
28004;BME280;15330;51.234;6.754;2022-08-07T14:57:05;101749.72;;;26.04;24.63
28004;BME280;15330;51.234;6.754;2022-08-07T14:59:35;101755.72;;;26.58;25.21
28004;BME280;15330;51.234;6.754;2022-08-07T15:02:16;101753.50;;;26.72;24.63
28004;BME280;15330;51.234;6.754;2022-08-07T15:04:46;101756.25;;;26.72;25.06
28004;BME280;15330;51.234;6.754;2022-08-07T15:07:18;101753.91;;;26.80;24.98
28004;BME280;15330;51.234;6.754;2022-08-07T15:09:46;101742.25;;;26.56;25.26
28004;BME280;15330;51.234;6.754;2022-08-07T15:12:18;101751.06;;;26.30;25.28
28004;BME280;15330;51.234;6.754;2022-08-07T15:14:54;101752.69;;;26.43;25.22
28004;BME280;15330;51.234;6.754;2022-08-07T15:17:27;101753.16;;;26.11;25.95
28004;BME280;15330;51.234;6.754;2022-08-07T15:19:58;101751.22;;;25.72;26.63